sensor_id;sensor_type;location;lat;lon;timestamp;pressure;altitude;pressure_sealevel;temperature;humidity
11413;BME280;5762;43.256;26.960;2023-04-10T00:01:18;99805.97;;;8.02;100.00
11413;BME280;5762;43.256;26.960;2023-04-10T00:03:46;99809.22;;;7.99;100.00
11413;BME280;5762;43.256;26.960;2023-04-10T00:06:15;99810.52;;;8.06;100.00
11413;BME280;5762;43.256;26.960;2023-04-10T00:08:43;99808.58;;;8.17;100.00
11413;BME280;5762;43.256;26.960;2023-04-10T00:11:12;99807.26;;;8.12;100.00
11413;BME280;5762;43.256;26.960;2023-04-10T00:13:42;99807.04;;;8.03;100.00
11413;BME280;5762;43.256;26.960;2023-04-10T00:16:10;99802.69;;;8.10;100.00
11413;BME280;5762;43.256;26.960;2023-04-10T00:18:38;99798.62;;;8.13;100.00
11413;BME280;5762;43.256;26.960;2023-04-10T00:21:06;99791.02;;;8.22;100.00
11413;BME280;5762;43.256;26.960;2023-04-10T00:23:36;99792.68;;;8.16;100.00
11413;BME280;5762;43.256;26.960;2023-04-10T00:26:04;99792.65;;;8.21;100.00
11413;BME280;5762;43.256;26.960;2023-04-10T00:28:33;99798.36;;;8.12;100.00
11413;BME280;5762;43.256;26.960;2023-04-10T00:31:05;99791.06;;;8.15;100.00
11413;BME280;5762;43.256;26.960;2023-04-10T00:33:34;99782.98;;;8.15;100.00
11413;BME280;5762;43.256;26.960;2023-04-10T00:36:03;99792.38;;;8.20;100.00
11413;BME280;5762;43.256;26.960;2023-04-10T00:38:32;99791.00;;;8.25;100.00
11413;BME280;5762;43.256;26.960;2023-04-10T00:41:00;99782.91;;;8.25;100.00
11413;BME280;5762;43.256;26.960;2023-04-10T00:43:29;99778.61;;;8.24;100.00
11413;BME280;5762;43.256;26.960;2023-04-10T00:45:58;99778.08;;;8.22;100.00
11413;BME280;5762;43.256;26.960;2023-04-10T00:48:27;99773.78;;;8.21;100.00
11413;BME280;5762;43.256;26.960;2023-04-10T00:50:56;99765.69;;;8.21;100.00
11413;BME280;5762;43.256;26.960;2023-04-10T00:53:25;99768.44;;;8.13;100.00
11413;BME280;5762;43.256;26.960;2023-04-10T00:55:55;99765.18;;;8.16;100.00
11413;BME280;5762;43.256;26.960;2023-04-10T00:58:24;99765.98;;;8.17;100.00
11413;BME280;5762;43.256;26.960;2023-04-10T01:00:52;99759.52;;;8.15;100.00
11413;BME280;5762;43.256;26.960;2023-04-10T01:03:21;99757.44;;;8.04;100.00
11413;BME280;5762;43.256;26.960;2023-04-10T01:05:51;99754.19;;;8.07;100.00
11413;BME280;5762;43.256;26.960;2023-04-10T01:08:22;99755.81;;;8.06;100.00
11413;BME280;5762;43.256;26.960;2023-04-10T01:10:53;99756.08;;;8.07;100.00
11413;BME280;5762;43.256;26.960;2023-04-10T01:13:21;99748.27;;;8.05;100.00
11413;BME280;5762;43.256;26.960;2023-04-10T01:15:51;99749.72;;;7.95;100.00
11413;BME280;5762;43.256;26.960;2023-04-10T01:18:28;99744.90;;;7.90;100.00
11413;BME280;5762;43.256;26.960;2023-04-10T01:20:50;99742.53;;;7.81;100.00
11413;BME280;5762;43.256;26.960;2023-04-10T01:23:31;99738.80;;;7.74;100.00
11413;BME280;5762;43.256;26.960;2023-04-10T01:26:01;99740.97;;;7.72;100.00
11413;BME280;5762;43.256;26.960;2023-04-10T01:28:35;99743.95;;;7.68;100.00
11413;BME280;5762;43.256;26.960;2023-04-10T01:30:59;99744.46;;;7.72;100.00
11413;BME280;5762;43.256;26.960;2023-04-10T01:33:31;99743.16;;;7.65;100.00
11413;BME280;5762;43.256;26.960;2023-04-10T01:35:59;99740.72;;;7.68;100.00
11413;BME280;5762;43.256;26.960;2023-04-10T01:38:28;99744.82;;;7.61;100.00
11413;BME280;5762;43.256;26.960;2023-04-10T01:40:57;99739.50;;;7.48;100.00
11413;BME280;5762;43.256;26.960;2023-04-10T01:43:28;99737.34;;;7.48;100.00
11413;BME280;5762;43.256;26.960;2023-04-10T01:45:57;99746.77;;;7.48;100.00
11413;BME280;5762;43.256;26.960;2023-04-10T01:48:27;99737.62;;;7.46;100.00
11413;BME280;5762;43.256;26.960;2023-04-10T01:50:56;99740.84;;;7.48;100.00
11413;BME280;5762;43.256;26.960;2023-04-10T01:53:25;99741.94;;;7.45;100.00
11413;BME280;5762;43.256;26.960;2023-04-10T01:55:55;99738.76;;;7.32;100.00
11413;BME280;5762;43.256;26.960;2023-04-10T01:58:24;99738.20;;;7.38;100.00
11413;BME280;5762;43.256;26.960;2023-04-10T02:00:53;99741.38;;;7.48;100.00
11413;BME280;5762;43.256;26.960;2023-04-10T02:03:22;99735.73;;;7.47;100.00
11413;BME280;5762;43.256;26.960;2023-04-10T02:08:23;99727.41;;;7.40;100.00
11413;BME280;5762;43.256;26.960;2023-04-10T02:10:54;99738.20;;;7.38;100.00
11413;BME280;5762;43.256;26.960;2023-04-10T02:13:19;99729.82;;;7.45;100.00
11413;BME280;5762;43.256;26.960;2023-04-10T02:15:49;99734.42;;;7.39;100.00
11413;BME280;5762;43.256;26.960;2023-04-10T02:18:18;99730.74;;;7.25;100.00
11413;BME280;5762;43.256;26.960;2023-04-10T02:20:48;99730.69;;;7.30;100.00
11413;BME280;5762;43.256;26.960;2023-04-10T02:23:18;99731.73;;;7.36;100.00
11413;BME280;5762;43.256;26.960;2023-04-10T02:25:46;99732.53;;;7.39;100.00
11413;BME280;5762;43.256;26.960;2023-04-10T02:28:15;99731.77;;;7.31;100.00
11413;BME280;5762;43.256;26.960;2023-04-10T02:30:43;99728.25;;;7.33;100.00
11413;BME280;5762;43.256;26.960;2023-04-10T02:33:12;99730.97;;;7.28;100.00
11413;BME280;5762;43.256;26.960;2023-04-10T02:35:41;99724.55;;;7.24;100.00
11413;BME280;5762;43.256;26.960;2023-04-10T02:38:10;99734.79;;;7.22;100.00
11413;BME280;5762;43.256;26.960;2023-04-10T02:40:39;99729.17;;;7.14;100.00
11413;BME280;5762;43.256;26.960;2023-04-10T02:43:08;99726.45;;;7.21;100.00
11413;BME280;5762;43.256;26.960;2023-04-10T02:45:37;99724.23;;;7.28;100.00
11413;BME280;5762;43.256;26.960;2023-04-10T02:48:05;99725.37;;;7.22;100.00
11413;BME280;5762;43.256;26.960;2023-04-10T02:50:34;99722.16;;;7.18;100.00
11413;BME280;5762;43.256;26.960;2023-04-10T02:53:02;99722.43;;;7.16;100.00
11413;BME280;5762;43.256;26.960;2023-04-10T02:55:31;99719.20;;;7.14;100.00
11413;BME280;5762;43.256;26.960;2023-04-10T02:58:00;99719.73;;;7.16;100.00
11413;BME280;5762;43.256;26.960;2023-04-10T03:00:29;99724.35;;;7.05;100.00
11413;BME280;5762;43.256;26.960;2023-04-10T03:02:58;99723.56;;;7.00;100.00
11413;BME280;5762;43.256;26.960;2023-04-10T03:05:27;99721.39;;;7.04;100.00
11413;BME280;5762;43.256;26.960;2023-04-10T03:07:58;99725.77;;;6.90;100.00
11413;BME280;5762;43.256;26.960;2023-04-10T03:10:27;99729.00;;;6.90;100.00
11413;BME280;5762;43.256;26.960;2023-04-10T03:12:56;99723.84;;;6.93;100.00
11413;BME280;5762;43.256;26.960;2023-04-10T03:15:25;99725.51;;;6.87;100.00
11413;BME280;5762;43.256;26.960;2023-04-10T03:17:54;99724.99;;;6.77;100.00
11413;BME280;5762;43.256;26.960;2023-04-10T03:20:22;99726.34;;;6.75;100.00
11413;BME280;5762;43.256;26.960;2023-04-10T03:22:51;99722.87;;;6.59;100.00
11413;BME280;5762;43.256;26.960;2023-04-10T03:25:20;99719.95;;;6.55;100.00
11413;BME280;5762;43.256;26.960;2023-04-10T03:27:49;99718.60;;;6.55;100.00
11413;BME280;5762;43.256;26.960;2023-04-10T03:30:18;99718.34;;;6.54;100.00
11413;BME280;5762;43.256;26.960;2023-04-10T03:37:41;99719.15;;;6.42;100.00
11413;BME280;5762;43.256;26.960;2023-04-10T03:40:10;99724.52;;;6.47;100.00
11413;BME280;5762;43.256;26.960;2023-04-10T03:42:39;99724.80;;;6.48;100.00
11413;BME280;5762;43.256;26.960;2023-04-10T03:45:08;99758.67;;;6.49;100.00
11413;BME280;5762;43.256;26.960;2023-04-10T03:47:37;99721.56;;;6.51;100.00
11413;BME280;5762;43.256;26.960;2023-04-10T03:50:05;99729.91;;;6.45;100.00
11413;BME280;5762;43.256;26.960;2023-04-10T03:52:34;99725.06;;;6.49;100.00
11413;BME280;5762;43.256;26.960;2023-04-10T03:55:03;99733.66;;;6.54;100.00
11413;BME280;5762;43.256;26.960;2023-04-10T03:57:32;99731.52;;;6.53;100.00
11413;BME280;5762;43.256;26.960;2023-04-10T04:00:02;99733.66;;;6.54;100.00
11413;BME280;5762;43.256;26.960;2023-04-10T04:02:31;99734.20;;;6.51;100.00
11413;BME280;5762;43.256;26.960;2023-04-10T04:05:00;99732.58;;;6.55;100.00
11413;BME280;5762;43.256;26.960;2023-04-10T04:07:29;99728.81;;;6.56;100.00
11413;BME280;5762;43.256;26.960;2023-04-10T04:09:58;99742.27;;;6.56;100.00
11413;BME280;5762;43.256;26.960;2023-04-10T04:12:29;99732.28;;;6.61;100.00
11413;BME280;5762;43.256;26.960;2023-04-10T04:14:58;99733.87;;;6.70;100.00
11413;BME280;5762;43.256;26.960;2023-04-10T04:17:27;99732.80;;;6.68;100.00
11413;BME280;5762;43.256;26.960;2023-04-10T04:19:55;99731.17;;;6.78;100.00
11413;BME280;5762;43.256;26.960;2023-04-10T04:22:24;99733.04;;;6.87;100.00
11413;BME280;5762;43.256;26.960;2023-04-10T04:24:53;99737.30;;;6.96;100.00
11413;BME280;5762;43.256;26.960;2023-04-10T04:27:22;99733.52;;;6.97;100.00
11413;BME280;5762;43.256;26.960;2023-04-10T04:29:51;99731.63;;;7.00;100.00
11413;BME280;5762;43.256;26.960;2023-04-10T04:32:20;99729.45;;;7.07;100.00
11413;BME280;5762;43.256;26.960;2023-04-10T04:34:48;99729.44;;;7.12;100.00
11413;BME280;5762;43.256;26.960;2023-04-10T04:37:17;99735.86;;;7.24;100.00
11413;BME280;5762;43.256;26.960;2023-04-10T04:39:46;99723.67;;;7.34;100.00
11413;BME280;5762;43.256;26.960;2023-04-10T04:42:15;99731.42;;;7.48;100.00
11413;BME280;5762;43.256;26.960;2023-04-10T04:44:44;99733.26;;;7.58;100.00
11413;BME280;5762;43.256;26.960;2023-04-10T04:47:13;99736.20;;;7.61;100.00
11413;BME280;5762;43.256;26.960;2023-04-10T04:49:42;99729.13;;;7.68;100.00
11413;BME280;5762;43.256;26.960;2023-04-10T04:52:11;99733.87;;;7.86;100.00
11413;BME280;5762;43.256;26.960;2023-04-10T04:54:40;99733.28;;;7.94;100.00
11413;BME280;5762;43.256;26.960;2023-04-10T04:57:09;99733.19;;;8.04;100.00
11413;BME280;5762;43.256;26.960;2023-04-10T04:59:37;99741.98;;;8.18;100.00
11413;BME280;5762;43.256;26.960;2023-04-10T05:02:05;99740.78;;;8.34;100.00
11413;BME280;5762;43.256;26.960;2023-04-10T05:04:34;99745.27;;;8.46;100.00
11413;BME280;5762;43.256;26.960;2023-04-10T05:07:03;99750.36;;;8.50;100.00
11413;BME280;5762;43.256;26.960;2023-04-10T05:09:32;99750.55;;;8.59;100.00
11413;BME280;5762;43.256;26.960;2023-04-10T05:12:01;99743.89;;;8.75;100.00
11413;BME280;5762;43.256;26.960;2023-04-10T05:14:30;99746.66;;;8.96;100.00
11413;BME280;5762;43.256;26.960;2023-04-10T05:16:59;99746.20;;;9.11;100.00
11413;BME280;5762;43.256;26.960;2023-04-10T05:19:27;99742.64;;;9.15;100.00
11413;BME280;5762;43.256;26.960;2023-04-10T05:21:56;99746.89;;;9.21;100.00
11413;BME280;5762;43.256;26.960;2023-04-10T05:24:25;99748.50;;;9.22;100.00
11413;BME280;5762;43.256;26.960;2023-04-10T05:26:54;99745.67;;;9.32;100.00
11413;BME280;5762;43.256;26.960;2023-04-10T05:29:23;99753.55;;;9.29;100.00
11413;BME280;5762;43.256;26.960;2023-04-10T05:31:51;99757.14;;;9.22;100.00
11413;BME280;5762;43.256;26.960;2023-04-10T05:34:20;99753.35;;;9.23;100.00
11413;BME280;5762;43.256;26.960;2023-04-10T05:36:48;99754.53;;;9.14;100.00
11413;BME280;5762;43.256;26.960;2023-04-10T05:39:17;99762.58;;;9.19;100.00
11413;BME280;5762;43.256;26.960;2023-04-10T05:41:45;99766.13;;;9.15;100.00
11413;BME280;5762;43.256;26.960;2023-04-10T05:44:13;99761.16;;;9.24;100.00
11413;BME280;5762;43.256;26.960;2023-04-10T05:46:42;99762.52;;;9.24;100.00
11413;BME280;5762;43.256;26.960;2023-04-10T05:49:10;99765.04;;;9.37;100.00
11413;BME280;5762;43.256;26.960;2023-04-10T05:51:39;99749.98;;;9.10;100.00
11413;BME280;5762;43.256;26.960;2023-04-10T05:54:08;99740.52;;;9.12;100.00
11413;BME280;5762;43.256;26.960;2023-04-10T05:56:37;99732.55;;;9.23;100.00
11413;BME280;5762;43.256;26.960;2023-04-10T05:59:06;99731.83;;;9.36;100.00
11413;BME280;5762;43.256;26.960;2023-04-10T06:01:33;99736.22;;;9.32;100.00
11413;BME280;5762;43.256;26.960;2023-04-10T06:04:02;99733.27;;;9.31;100.00
11413;BME280;5762;43.256;26.960;2023-04-10T06:06:31;99727.58;;;9.33;100.00
11413;BME280;5762;43.256;26.960;2023-04-10T06:09:00;99734.33;;;9.70;100.00
11413;BME280;5762;43.256;26.960;2023-04-10T06:11:28;99734.52;;;9.95;100.00
11413;BME280;5762;43.256;26.960;2023-04-10T06:13:57;99739.11;;;10.11;100.00
11413;BME280;5762;43.256;26.960;2023-04-10T06:16:25;99740.54;;;10.06;100.00
11413;BME280;5762;43.256;26.960;2023-04-10T06:18:54;99742.84;;;10.15;100.00
11413;BME280;5762;43.256;26.960;2023-04-10T06:21:22;99739.08;;;10.32;100.00
11413;BME280;5762;43.256;26.960;2023-04-10T06:23:50;99742.97;;;10.26;100.00
11413;BME280;5762;43.256;26.960;2023-04-10T06:26:19;99731.30;;;10.09;100.00
11413;BME280;5762;43.256;26.960;2023-04-10T06:28:47;99737.73;;;9.97;100.00
11413;BME280;5762;43.256;26.960;2023-04-10T06:31:17;99732.28;;;10.00;100.00
11413;BME280;5762;43.256;26.960;2023-04-10T06:33:45;99731.88;;;9.90;100.00
11413;BME280;5762;43.256;26.960;2023-04-10T06:36:17;99735.50;;;10.02;100.00
11413;BME280;5762;43.256;26.960;2023-04-10T06:38:46;99729.80;;;10.03;100.00
11413;BME280;5762;43.256;26.960;2023-04-10T06:41:14;99727.79;;;10.09;100.00
11413;BME280;5762;43.256;26.960;2023-04-10T06:43:43;99724.13;;;10.19;100.00
11413;BME280;5762;43.256;26.960;2023-04-10T06:46:11;99727.79;;;10.09;100.00
11413;BME280;5762;43.256;26.960;2023-04-10T06:48:40;99725.02;;;9.98;100.00
11413;BME280;5762;43.256;26.960;2023-04-10T06:51:09;99718.95;;;9.87;100.00
11413;BME280;5762;43.256;26.960;2023-04-10T06:53:42;99716.09;;;9.97;100.00
11413;BME280;5762;43.256;26.960;2023-04-10T06:56:07;99721.22;;;9.80;100.00
11413;BME280;5762;43.256;26.960;2023-04-10T06:58:36;99727.53;;;9.92;100.00
11413;BME280;5762;43.256;26.960;2023-04-10T07:01:05;99726.29;;;10.03;100.00
11413;BME280;5762;43.256;26.960;2023-04-10T07:03:34;99727.50;;;10.11;100.00
11413;BME280;5762;43.256;26.960;2023-04-10T07:06:03;99733.24;;;10.25;100.00
11413;BME280;5762;43.256;26.960;2023-04-10T07:08:33;99737.23;;;10.44;100.00
11413;BME280;5762;43.256;26.960;2023-04-10T07:11:02;99731.28;;;10.45;100.00
11413;BME280;5762;43.256;26.960;2023-04-10T07:13:33;99729.07;;;10.63;100.00
11413;BME280;5762;43.256;26.960;2023-04-10T07:16:02;99735.91;;;10.88;100.00
11413;BME280;5762;43.256;26.960;2023-04-10T07:18:31;99735.45;;;10.83;100.00
11413;BME280;5762;43.256;26.960;2023-04-10T07:21:01;99741.84;;;11.03;100.00
11413;BME280;5762;43.256;26.960;2023-04-10T07:23:29;99739.20;;;11.26;100.00
11413;BME280;5762;43.256;26.960;2023-04-10T07:25:58;99743.32;;;11.37;100.00
11413;BME280;5762;43.256;26.960;2023-04-10T07:28:27;99743.13;;;11.45;100.00
11413;BME280;5762;43.256;26.960;2023-04-10T07:30:56;99744.76;;;11.70;100.00
11413;BME280;5762;43.256;26.960;2023-04-10T07:33:25;99747.33;;;11.89;100.00
11413;BME280;5762;43.256;26.960;2023-04-10T07:35:53;99751.78;;;11.96;100.00
11413;BME280;5762;43.256;26.960;2023-04-10T07:38:21;99748.09;;;12.03;100.00
11413;BME280;5762;43.256;26.960;2023-04-10T07:46:20;99742.28;;;12.41;100.00
11413;BME280;5762;43.256;26.960;2023-04-10T07:48:52;99749.87;;;12.41;100.00
11413;BME280;5762;43.256;26.960;2023-04-10T07:51:21;99759.24;;;12.24;100.00
11413;BME280;5762;43.256;26.960;2023-04-10T07:53:50;99754.86;;;12.15;100.00
11413;BME280;5762;43.256;26.960;2023-04-10T07:56:19;99743.89;;;12.31;100.00
11413;BME280;5762;43.256;26.960;2023-04-10T07:58:48;99743.58;;;12.44;100.00
11413;BME280;5762;43.256;26.960;2023-04-10T08:01:17;99740.16;;;12.49;100.00
11413;BME280;5762;43.256;26.960;2023-04-10T08:03:46;99745.49;;;12.43;100.00
11413;BME280;5762;43.256;26.960;2023-04-10T08:06:15;99741.11;;;12.45;100.00
11413;BME280;5762;43.256;26.960;2023-04-10T08:08:44;99741.48;;;12.40;100.00
11413;BME280;5762;43.256;26.960;2023-04-10T08:11:23;99748.16;;;12.12;100.00
11413;BME280;5762;43.256;26.960;2023-04-10T08:13:52;99745.11;;;12.14;100.00
11413;BME280;5762;43.256;26.960;2023-04-10T08:16:22;99744.02;;;12.26;100.00
11413;BME280;5762;43.256;26.960;2023-04-10T08:18:54;99740.68;;;12.18;100.00
11413;BME280;5762;43.256;26.960;2023-04-10T08:21:28;99741.42;;;12.21;100.00
11413;BME280;5762;43.256;26.960;2023-04-10T08:23:53;99742.40;;;12.14;100.00
11413;BME280;5762;43.256;26.960;2023-04-10T08:26:22;99730.69;;;12.38;100.00
11413;BME280;5762;43.256;26.960;2023-04-10T08:28:52;99727.54;;;12.45;100.00
11413;BME280;5762;43.256;26.960;2023-04-10T08:31:20;99738.22;;;12.41;100.00
11413;BME280;5762;43.256;26.960;2023-04-10T08:33:49;99725.14;;;12.43;100.00
11413;BME280;5762;43.256;26.960;2023-04-10T08:36:18;99727.02;;;12.54;100.00
11413;BME280;5762;43.256;26.960;2023-04-10T08:38:46;99732.11;;;12.66;100.00
11413;BME280;5762;43.256;26.960;2023-04-10T08:41:16;99734.63;;;12.74;100.00
11413;BME280;5762;43.256;26.960;2023-04-10T08:43:45;99736.17;;;12.78;100.00
11413;BME280;5762;43.256;26.960;2023-04-10T08:46:13;99685.29;;;12.41;100.00
11413;BME280;5762;43.256;26.960;2023-04-10T08:48:46;99734.22;;;12.58;100.00
11413;BME280;5762;43.256;26.960;2023-04-10T08:51:20;99726.88;;;12.59;100.00
11413;BME280;5762;43.256;26.960;2023-04-10T08:53:44;99722.88;;;12.56;100.00
11413;BME280;5762;43.256;26.960;2023-04-10T08:56:13;99712.20;;;12.60;100.00
11413;BME280;5762;43.256;26.960;2023-04-10T08:58:43;99710.23;;;12.52;100.00
11413;BME280;5762;43.256;26.960;2023-04-10T09:01:11;99705.59;;;12.63;100.00
11413;BME280;5762;43.256;26.960;2023-04-10T09:03:41;99712.36;;;12.83;100.00
11413;BME280;5762;43.256;26.960;2023-04-10T09:06:10;99711.62;;;12.71;100.00
11413;BME280;5762;43.256;26.960;2023-04-10T09:08:39;99713.58;;;12.80;100.00
11413;BME280;5762;43.256;26.960;2023-04-10T09:11:08;99703.05;;;12.67;100.00
11413;BME280;5762;43.256;26.960;2023-04-10T09:13:40;99699.31;;;12.54;100.00
11413;BME280;5762;43.256;26.960;2023-04-10T09:16:09;99693.19;;;12.60;100.00
11413;BME280;5762;43.256;26.960;2023-04-10T09:18:45;99695.41;;;12.58;100.00
11413;BME280;5762;43.256;26.960;2023-04-10T09:21:14;99686.60;;;12.52;100.00
11413;BME280;5762;43.256;26.960;2023-04-10T09:23:43;99684.73;;;12.61;100.00
11413;BME280;5762;43.256;26.960;2023-04-10T09:31:32;99678.69;;;12.64;100.00
11413;BME280;5762;43.256;26.960;2023-04-10T09:36:30;99670.05;;;12.62;100.00
11413;BME280;5762;43.256;26.960;2023-04-10T09:38:58;99671.80;;;12.87;100.00
11413;BME280;5762;43.256;26.960;2023-04-10T09:41:27;99680.54;;;12.95;100.00
11413;BME280;5762;43.256;26.960;2023-04-10T09:44:09;99673.96;;;12.87;100.00
11413;BME280;5762;43.256;26.960;2023-04-10T09:46:38;99672.56;;;12.70;100.00
11413;BME280;5762;43.256;26.960;2023-04-10T09:49:07;99671.83;;;12.67;100.00
11413;BME280;5762;43.256;26.960;2023-04-10T09:51:36;99673.30;;;12.73;100.00
11413;BME280;5762;43.256;26.960;2023-04-10T09:54:05;99665.80;;;12.79;100.00
11413;BME280;5762;43.256;26.960;2023-04-10T09:56:35;99655.50;;;12.87;100.00
11413;BME280;5762;43.256;26.960;2023-04-10T09:59:03;99654.25;;;12.93;100.00
11413;BME280;5762;43.256;26.960;2023-04-10T10:01:33;99655.57;;;12.75;100.00
11413;BME280;5762;43.256;26.960;2023-04-10T10:04:03;99647.88;;;12.69;100.00
11413;BME280;5762;43.256;26.960;2023-04-10T10:06:32;99643.25;;;12.69;100.00
11413;BME280;5762;43.256;26.960;2023-04-10T10:09:01;99635.69;;;12.78;100.00
11413;BME280;5762;43.256;26.960;2023-04-10T10:11:32;99638.09;;;12.88;100.00
11413;BME280;5762;43.256;26.960;2023-04-10T10:13:59;99629.66;;;12.98;100.00
11413;BME280;5762;43.256;26.960;2023-04-10T10:16:31;99622.66;;;13.14;100.00
11413;BME280;5762;43.256;26.960;2023-04-10T10:21:44;99630.06;;;13.39;100.00
11413;BME280;5762;43.256;26.960;2023-04-10T10:24:13;99625.66;;;13.32;100.00
11413;BME280;5762;43.256;26.960;2023-04-10T10:26:43;99607.97;;;13.67;100.00
11413;BME280;5762;43.256;26.960;2023-04-10T10:29:12;99613.80;;;13.80;100.00
11413;BME280;5762;43.256;26.960;2023-04-10T10:34:30;99610.92;;;13.85;100.00
11413;BME280;5762;43.256;26.960;2023-04-10T10:36:59;99608.12;;;13.79;100.00
11413;BME280;5762;43.256;26.960;2023-04-10T10:39:33;99607.41;;;13.76;100.00
11413;BME280;5762;43.256;26.960;2023-04-10T10:45:05;99604.47;;;13.98;100.00
11413;BME280;5762;43.256;26.960;2023-04-10T10:47:27;99597.27;;;13.94;100.00
11413;BME280;5762;43.256;26.960;2023-04-10T10:49:59;99600.84;;;13.86;100.00
11413;BME280;5762;43.256;26.960;2023-04-10T10:52:43;99586.36;;;13.79;100.00
11413;BME280;5762;43.256;26.960;2023-04-10T10:57:51;99579.58;;;13.62;100.00
11413;BME280;5762;43.256;26.960;2023-04-10T11:00:21;99569.73;;;13.72;100.00
11413;BME280;5762;43.256;26.960;2023-04-10T11:05:53;99572.83;;;13.85;100.00
11413;BME280;5762;43.256;26.960;2023-04-10T11:16:10;99570.39;;;13.92;100.00
11413;BME280;5762;43.256;26.960;2023-04-10T11:21:18;99563.18;;;13.96;100.00
11413;BME280;5762;43.256;26.960;2023-04-10T11:29:31;99549.78;;;13.51;100.00
11413;BME280;5762;43.256;26.960;2023-04-10T11:31:35;99542.44;;;13.43;100.00
11413;BME280;5762;43.256;26.960;2023-04-10T11:34:05;99539.72;;;13.43;100.00
11413;BME280;5762;43.256;26.960;2023-04-10T11:36:36;99532.84;;;13.28;100.00
11413;BME280;5762;43.256;26.960;2023-04-10T11:39:04;99531.88;;;13.32;100.00
11413;BME280;5762;43.256;26.960;2023-04-10T11:41:37;99526.28;;;13.29;100.00
11413;BME280;5762;43.256;26.960;2023-04-10T11:44:12;99527.64;;;13.37;100.00
11413;BME280;5762;43.256;26.960;2023-04-10T11:46:41;99529.00;;;13.37;100.00
11413;BME280;5762;43.256;26.960;2023-04-10T11:49:06;99522.05;;;13.34;100.00
11413;BME280;5762;43.256;26.960;2023-04-10T11:51:38;99520.69;;;13.34;100.00
11413;BME280;5762;43.256;26.960;2023-04-10T11:54:08;99524.69;;;13.19;100.00
11413;BME280;5762;43.256;26.960;2023-04-10T11:56:37;99518.13;;;13.37;100.00
11413;BME280;5762;43.256;26.960;2023-04-10T11:59:06;99516.21;;;13.38;100.00
11413;BME280;5762;43.256;26.960;2023-04-10T12:01:42;99504.55;;;13.29;100.00
11413;BME280;5762;43.256;26.960;2023-04-10T12:04:14;99500.30;;;13.34;100.00
11413;BME280;5762;43.256;26.960;2023-04-10T12:06:50;99499.35;;;13.21;100.00
11413;BME280;5762;43.256;26.960;2023-04-10T12:09:15;99492.48;;;13.15;100.00
11413;BME280;5762;43.256;26.960;2023-04-10T12:12:04;99484.48;;;13.19;100.00
11413;BME280;5762;43.256;26.960;2023-04-10T12:14:18;99479.61;;;13.18;100.00
11413;BME280;5762;43.256;26.960;2023-04-10T12:16:47;99472.73;;;13.12;100.00
11413;BME280;5762;43.256;26.960;2023-04-10T12:19:15;99465.87;;;12.97;100.00
11413;BME280;5762;43.256;26.960;2023-04-10T12:21:44;99453.16;;;12.87;100.00
11413;BME280;5762;43.256;26.960;2023-04-10T12:24:19;99455.80;;;12.89;100.00
11413;BME280;5762;43.256;26.960;2023-04-10T12:26:48;99452.13;;;12.94;100.00
11413;BME280;5762;43.256;26.960;2023-04-10T12:29:16;99451.73;;;13.06;100.00
11413;BME280;5762;43.256;26.960;2023-04-10T12:31:45;99453.72;;;13.12;100.00
11413;BME280;5762;43.256;26.960;2023-04-10T12:34:17;99455.55;;;13.14;100.00
11413;BME280;5762;43.256;26.960;2023-04-10T12:36:44;99455.39;;;13.19;100.00
11413;BME280;5762;43.256;26.960;2023-04-10T12:39:22;99456.59;;;13.24;100.00
11413;BME280;5762;43.256;26.960;2023-04-10T12:41:52;99460.27;;;13.20;100.00
11413;BME280;5762;43.256;26.960;2023-04-10T12:44:21;99449.64;;;13.21;100.00
11413;BME280;5762;43.256;26.960;2023-04-10T12:46:59;99458.78;;;12.82;100.00
11413;BME280;5762;43.256;26.960;2023-04-10T12:49:19;99436.14;;;12.49;100.00
11413;BME280;5762;43.256;26.960;2023-04-10T12:51:51;99429.48;;;12.18;100.00
11413;BME280;5762;43.256;26.960;2023-04-10T12:54:27;99419.69;;;11.91;100.00
11413;BME280;5762;43.256;26.960;2023-04-10T12:56:55;99413.12;;;11.84;100.00
11413;BME280;5762;43.256;26.960;2023-04-10T12:59:24;99413.70;;;11.72;100.00
11413;BME280;5762;43.256;26.960;2023-04-10T13:01:55;99404.46;;;11.73;100.00
11413;BME280;5762;43.256;26.960;2023-04-10T13:04:23;99405.09;;;11.70;100.00
11413;BME280;5762;43.256;26.960;2023-04-10T13:06:52;99399.84;;;11.73;100.00
11413;BME280;5762;43.256;26.960;2023-04-10T13:09:21;99398.17;;;11.75;100.00
11413;BME280;5762;43.256;26.960;2023-04-10T13:11:50;99390.84;;;11.75;100.00
11413;BME280;5762;43.256;26.960;2023-04-10T13:14:18;99395.67;;;11.67;100.00
11413;BME280;5762;43.256;26.960;2023-04-10T13:16:47;99393.23;;;11.57;100.00
11413;BME280;5762;43.256;26.960;2023-04-10T13:19:16;99402.16;;;11.58;100.00
11413;BME280;5762;43.256;26.960;2023-04-10T13:21:45;99405.91;;;11.59;100.00
11413;BME280;5762;43.256;26.960;2023-04-10T13:24:16;99407.09;;;11.56;100.00
11413;BME280;5762;43.256;26.960;2023-04-10T13:26:45;99401.98;;;11.54;100.00
11413;BME280;5762;43.256;26.960;2023-04-10T13:29:13;99410.29;;;11.58;100.00
11413;BME280;5762;43.256;26.960;2023-04-10T13:31:42;99413.63;;;11.55;100.00
11413;BME280;5762;43.256;26.960;2023-04-10T13:34:11;99421.33;;;11.30;100.00
11413;BME280;5762;43.256;26.960;2023-04-10T13:36:40;99428.32;;;11.00;100.00
11413;BME280;5762;43.256;26.960;2023-04-10T13:39:09;99431.75;;;10.81;100.00
11413;BME280;5762;43.256;26.960;2023-04-10T13:41:37;99427.88;;;10.62;100.00
11413;BME280;5762;43.256;26.960;2023-04-10T13:44:06;99424.29;;;10.53;100.00
11413;BME280;5762;43.256;26.960;2023-04-10T13:46:34;99427.46;;;10.44;100.00
11413;BME280;5762;43.256;26.960;2023-04-10T13:49:03;99433.23;;;10.40;100.00
11413;BME280;5762;43.256;26.960;2023-04-10T13:51:32;99448.30;;;10.32;100.00
11413;BME280;5762;43.256;26.960;2023-04-10T13:54:02;99466.43;;;10.32;100.00
11413;BME280;5762;43.256;26.960;2023-04-10T13:56:31;99456.11;;;10.34;100.00